createdAt,value
2023-02-13T06:11:40.433Z,4.70
2023-02-13T06:14:08.367Z,4.10
2023-02-13T06:16:37.764Z,4.60
2023-02-13T06:19:05.012Z,4.40
2023-02-13T06:21:33.328Z,4.60
2023-02-13T06:24:00.875Z,4.70
2023-02-13T06:26:27.449Z,4.50
2023-02-13T06:28:54.469Z,5.30
2023-02-13T06:31:22.630Z,5.20
2023-02-13T06:33:54.111Z,4.80
2023-02-13T06:36:24.324Z,4.70
2023-02-13T06:38:52.081Z,5.10
2023-02-13T06:41:19.695Z,5.30
2023-02-13T06:43:47.411Z,4.30
2023-02-13T06:46:14.485Z,5.60
2023-02-13T06:48:44.067Z,5.60
2023-02-13T06:51:11.468Z,5.80
2023-02-13T06:53:44.138Z,6.10
2023-02-13T06:56:11.759Z,5.90
2023-02-13T06:58:39.626Z,6.40
2023-02-13T07:01:07.838Z,6.00
2023-02-13T07:03:36.651Z,5.50
2023-02-13T07:06:04.382Z,5.60
2023-02-13T07:08:35.232Z,6.30
2023-02-13T07:11:05.736Z,5.90
2023-02-13T07:13:33.576Z,6.10
2023-02-13T07:16:01.227Z,6.40
2023-02-13T07:18:30.137Z,6.30
2023-02-13T07:21:00.578Z,5.80
2023-02-13T07:23:30.897Z,6.40
2023-02-13T07:26:00.058Z,6.70
2023-02-13T07:28:28.150Z,6.60
2023-02-13T07:30:56.549Z,6.90
2023-02-13T07:33:26.229Z,5.10
2023-02-13T07:35:53.901Z,7.20
2023-02-13T07:38:24.731Z,7.60
2023-02-13T07:40:54.390Z,6.80
2023-02-13T07:43:21.983Z,6.70
2023-02-13T07:45:49.739Z,7.50
2023-02-13T07:48:18.957Z,7.70
2023-02-13T07:50:50.608Z,6.80
2023-02-13T07:53:19.872Z,7.40
2023-02-13T07:55:52.015Z,7.10
2023-02-13T08:01:02.058Z,7.40
2023-02-13T08:03:37.159Z,8.40
2023-02-13T08:06:22.761Z,8.90
2023-02-13T08:09:39.745Z,7.80
2023-02-13T08:12:08.828Z,8.30
2023-02-13T08:14:35.772Z,8.60
2023-02-13T08:17:02.679Z,8.50
2023-02-13T08:19:30.869Z,7.40
2023-02-13T08:22:02.648Z,8.20
2023-02-13T08:24:32.404Z,9.30
2023-02-13T08:27:15.721Z,11.30
2023-02-13T08:33:34.079Z,10.40
2023-02-13T08:36:22.278Z,9.70
2023-02-13T08:39:06.186Z,10.40
2023-02-13T08:44:53.460Z,8.90
2023-02-13T08:47:42.098Z,9.00
2023-02-13T08:50:32.288Z,10.10
2023-02-13T08:53:15.616Z,10.20
2023-02-13T08:56:05.698Z,9.50
2023-02-13T08:59:13.910Z,9.10
2023-02-13T09:01:54.624Z,9.50
2023-02-13T09:04:32.986Z,9.30
2023-02-13T09:07:27.386Z,10.30
2023-02-13T09:10:06.114Z,10.00
2023-02-13T09:12:38.486Z,9.90
2023-02-13T09:15:22.227Z,10.00
2023-02-13T09:18:16.736Z,11.00
2023-02-13T09:21:07.983Z,11.10
2023-02-13T09:23:58.204Z,11.20
2023-02-13T09:26:31.203Z,10.40
2023-02-13T09:29:00.776Z,10.60
2023-02-13T09:31:29.775Z,11.30
2023-02-13T09:34:00.814Z,11.10
2023-02-13T09:36:38.761Z,10.60
2023-02-13T09:41:41.743Z,11.20
2023-02-13T09:44:38.600Z,11.70
2023-02-13T09:47:38.417Z,10.80
2023-02-13T09:57:22.366Z,9.90
2023-02-13T10:00:14.561Z,10.20
2023-02-13T10:03:03.368Z,10.60
2023-02-13T10:05:44.250Z,10.60
2023-02-13T10:08:44.760Z,10.90
2023-02-13T10:11:54.386Z,10.60
2023-02-13T10:14:59.162Z,9.70
2023-02-13T10:17:35.843Z,9.50
2023-02-13T10:20:16.279Z,10.50
2023-02-13T10:26:21.747Z,8.80
2023-02-13T10:29:24.126Z,9.00
2023-02-13T10:32:06.761Z,9.20
2023-02-13T10:34:41.862Z,8.70
2023-02-13T10:37:20.681Z,9.00
2023-02-13T10:39:52.610Z,9.10
2023-02-13T10:42:38.762Z,9.60
2023-02-13T10:45:53.368Z,8.90
2023-02-13T10:48:27.807Z,8.80
2023-02-13T10:51:38.028Z,10.90
2023-02-13T10:55:02.746Z,10.40
2023-02-13T10:58:10.120Z,11.00
2023-02-13T11:00:44.529Z,11.00
2023-02-13T11:03:24.772Z,11.30
2023-02-13T11:05:53.780Z,10.90
2023-02-13T11:08:35.661Z,10.60
2023-02-13T11:11:03.975Z,9.90
2023-02-13T11:13:36.769Z,9.10
2023-02-13T11:16:17.740Z,10.60
2023-02-13T11:18:49.226Z,10.10
2023-02-13T11:21:23.824Z,9.30
2023-02-13T11:23:54.042Z,8.80
2023-02-13T11:26:31.794Z,9.80
2023-02-13T11:32:29.618Z,10.60
2023-02-13T11:35:49.585Z,10.00
2023-02-13T11:38:19.848Z,11.00
2023-02-13T11:41:04.923Z,10.70
2023-02-13T11:43:53.213Z,9.80
2023-02-13T11:46:25.644Z,11.50
2023-02-13T11:49:02.694Z,8.20
2023-02-13T11:52:05.343Z,9.10
2023-02-13T11:54:43.365Z,8.80
2023-02-13T11:57:25.921Z,7.20
2023-02-13T12:00:32.507Z,8.80
2023-02-13T12:03:11.259Z,7.10
2023-02-13T12:05:55.782Z,8.50
2023-02-13T12:14:37.092Z,7.80
2023-02-13T12:21:04.222Z,7.40
2023-02-13T12:23:50.464Z,7.20
2023-02-13T12:26:20.708Z,6.60
2023-02-13T12:29:23.613Z,7.80
2023-02-13T12:32:28.544Z,7.90
2023-02-13T12:35:31.023Z,7.10
2023-02-13T12:38:26.844Z,7.00
2023-02-13T12:41:43.563Z,6.30
2023-02-13T12:44:53.416Z,6.80
2023-02-13T12:47:31.861Z,8.10
2023-02-13T12:50:19.533Z,7.00
2023-02-13T12:53:07.700Z,7.60
2023-02-13T12:55:43.003Z,7.30
2023-02-13T12:58:25.546Z,6.90
2023-02-13T13:01:02.266Z,6.40
2023-02-13T13:03:45.986Z,6.00
2023-02-13T13:06:20.434Z,6.30
2023-02-13T13:09:30.579Z,6.30
2023-02-13T13:12:20.844Z,6.00
2023-02-13T13:14:59.259Z,5.50
2023-02-13T13:17:47.898Z,5.60
2023-02-13T13:20:27.294Z,6.00
2023-02-13T13:23:12.883Z,5.90
2023-02-13T13:26:07.998Z,6.00
2023-02-13T13:28:40.433Z,5.80
2023-02-13T13:31:07.410Z,5.90
2023-02-13T13:36:46.531Z,5.20
2023-02-13T13:39:26.182Z,5.40
2023-02-13T13:42:24.310Z,5.70
2023-02-13T13:45:18.583Z,5.80
2023-02-13T13:47:57.169Z,5.90
2023-02-13T13:50:26.994Z,5.70
2023-02-13T13:53:22.750Z,5.70
2023-02-13T13:55:49.559Z,5.70
2023-02-13T13:58:42.026Z,5.50
2023-02-13T14:01:21.685Z,5.40
2023-02-13T14:03:55.572Z,5.90
2023-02-13T14:06:28.039Z,5.30
2023-02-13T14:09:05.606Z,6.60
2023-02-13T14:11:37.091Z,5.60
2023-02-13T14:17:04.213Z,4.90
2023-02-13T14:19:38.008Z,5.10
2023-02-13T14:22:28.165Z,5.00
2023-02-13T14:24:59.246Z,4.30
2023-02-13T14:27:38.375Z,5.00
2023-02-13T14:30:06.806Z,4.10
2023-02-13T14:32:36.619Z,4.10
2023-02-13T14:35:16.986Z,5.10
2023-02-13T14:38:09.025Z,5.50
2023-02-13T14:40:48.537Z,9.20
2023-02-13T14:43:30.746Z,10.60
2023-02-13T14:46:24.056Z,7.70
2023-02-13T14:49:02.539Z,8.00
2023-02-13T14:51:40.806Z,10.70
2023-02-13T14:54:28.166Z,10.90
2023-02-13T14:57:16.516Z,11.10
2023-02-13T15:03:19.227Z,8.20
2023-02-13T15:05:50.587Z,9.20
2023-02-13T15:10:52.740Z,7.70
2023-02-13T15:13:29.368Z,5.60
2023-02-13T15:16:14.865Z,6.20
2023-02-13T15:18:46.306Z,5.80
2023-02-13T15:21:19.816Z,5.60
2023-02-13T15:23:50.611Z,5.00
2023-02-13T15:26:25.814Z,4.90
2023-02-13T15:29:04.578Z,5.00
2023-02-13T15:31:37.612Z,5.00
2023-02-13T15:34:25.111Z,4.90
2023-02-13T15:36:53.621Z,4.90
2023-02-13T15:39:27.283Z,4.70
2023-02-13T15:41:56.358Z,4.70
2023-02-13T15:45:08.330Z,5.70
2023-02-13T15:47:46.946Z,5.50
2023-02-13T15:50:41.397Z,5.50
2023-02-13T15:53:19.466Z,4.80
2023-02-13T15:56:04.536Z,5.60
2023-02-13T15:58:33.852Z,5.90
2023-02-13T16:01:05.161Z,5.60
2023-02-13T16:03:45.661Z,6.30
2023-02-13T16:06:15.076Z,5.30
2023-02-13T16:08:56.036Z,5.30
2023-02-13T16:11:23.258Z,5.20
2023-02-13T16:14:29.514Z,5.80
2023-02-13T16:17:05.409Z,5.70
2023-02-13T16:19:58.675Z,5.90
2023-02-13T16:22:35.353Z,5.50
2023-02-13T16:25:12.348Z,5.40
2023-02-13T16:27:50.490Z,5.80
2023-02-13T16:30:38.396Z,5.80
2023-02-13T16:33:19.443Z,6.00
2023-02-13T16:35:58.524Z,7.00
2023-02-13T16:38:52.442Z,5.70
2023-02-13T16:41:31.660Z,5.80
2023-02-13T16:44:05.022Z,5.60
2023-02-13T16:46:42.229Z,5.10
2023-02-13T16:49:15.742Z,5.50
2023-02-13T16:52:12.262Z,5.70
2023-02-13T16:54:47.971Z,6.00
2023-02-13T16:57:33.283Z,6.10
2023-02-13T17:00:25.193Z,8.60
2023-02-13T17:03:00.731Z,9.00
2023-02-13T17:05:29.946Z,9.50
2023-02-13T17:07:59.822Z,11.40
2023-02-13T17:13:30.898Z,13.00
2023-02-13T17:16:22.368Z,12.80
2023-02-13T17:18:49.984Z,12.00
2023-02-13T17:21:19.241Z,11.70
2023-02-13T17:23:51.600Z,11.40
2023-02-13T17:26:19.295Z,11.50
2023-02-13T17:35:18.592Z,11.80
2023-02-13T17:37:46.974Z,12.00
2023-02-13T17:40:18.529Z,12.80
2023-02-13T17:42:47.752Z,11.10
2023-02-13T17:45:19.389Z,11.70
2023-02-13T17:47:54.214Z,10.30
2023-02-13T17:50:23.169Z,9.40
2023-02-13T17:52:51.705Z,9.00
2023-02-13T17:55:25.288Z,7.90
2023-02-13T17:57:57.451Z,7.40
2023-02-13T18:00:29.336Z,8.20
